Terminal Aerodrome Forecast
Issued by NWS Charleston, WV

Current Version | Previous Version | Graphics & Text | Print | Product List | Glossary On
Versions: 1 2 3 4 5 6 7 8 9 10 11 12 13 14 15 16 17 18 19 20 21 22 23 24 25 26 27 28 29 30
000
FTUS41 KRLX 211100
TAFBKW
TAF
KBKW 211133Z 2112/2212 21003KT P6SM BKN025
     FM211500 29005KT P6SM BKN035
     FM211700 29005KT P6SM VCTS BKN040CB
     FM212300 VRB03KT 6SM TSRA BR BKN040CB
     FM220200 00000KT P6SM VCTS BKN040CB
     FM220500 00000KT P6SM BKN040
     FM221100 00000KT 6SM BR BKN070=

USA.gov is the U.S. government's official web portal to all federal, state and local government web resources and services.